Time;durP1;ratioP1;P1;durP2;ratioP2;P2;SDS_P1;SDS_P2;PMS_P1;PMS_P2;Temp;Humidity;BMP_temperature;BMP_pressure;BME280_temperature;BME280_humidity;BME280_pressure;Samples;Min_cycle;Max_cycle;Signal;HPM_P1;HPM_P2
2021/07/09 00:02:25;;;;;;;3.50;2.70;;;;;;;;;;4112343;28;20296;-52
2021/07/09 00:04:27;;;;;;;3.63;3.05;;;;;;;;;;4110172;28;20241;-49
2021/07/09 00:06:30;;;;;;;3.65;2.85;;;15.50;60.80;;;;;;4111013;28;20449;-57
2021/07/09 00:08:32;;;;;;;5.13;2.80;;;23.00;46.30;;;;;;4113120;28;20418;-56
2021/07/09 00:10:34;;;;;;;3.53;2.83;;;23.40;45.20;;;;;;4110206;28;20449;-58
2021/07/09 00:12:36;;;;;;;4.00;2.95;;;23.90;44.30;;;;;;4093610;28;20045;-57
2021/07/09 00:14:38;;;;;;;3.20;2.55;;;24.30;43.40;;;;;;4107216;28;20081;-56
2021/07/09 00:16:41;;;;;;;3.85;2.67;;;24.70;42.50;;;;;;4112442;28;20037;-58
2021/07/09 00:18:44;;;;;;;4.82;3.03;;;25.10;41.60;;;;;;4108623;28;20470;-51
2021/07/09 00:20:46;;;;;;;4.13;2.80;;;25.50;41.30;;;;;;4108094;28;20034;-50
2021/07/09 00:22:48;;;;;;;4.55;2.63;;;25.80;41.70;;;;;;4102296;28;20129;-47
2021/07/09 00:24:51;;;;;;;3.72;2.40;;;26.10;40.50;;;;;;4108359;28;20138;-48
2021/07/09 00:26:53;;;;;;;3.60;2.90;;;26.40;40.10;;;;;;4104249;28;20046;-48
2021/07/09 00:28:57;;;;;;;3.78;2.38;;;26.70;39.40;;;;;;4105273;28;20571;-47
2021/07/09 00:31:00;;;;;;;3.13;2.35;;;27.00;38.80;;;;;;4102691;28;20384;-46
2021/07/09 00:33:02;;;;;;;3.95;2.72;;;27.40;38.40;;;;;;4106552;28;20058;-50
2021/07/09 00:35:04;;;;;;;3.03;2.50;;;27.70;38.00;;;;;;4106971;28;20027;-47
2021/07/09 00:37:06;;;;;;;3.33;2.70;;;;;;;;;;4108080;28;20022;-46
2021/07/09 00:39:09;;;;;;;3.65;2.90;;;;;;;;;;4108852;28;20019;-48
2021/07/09 00:41:11;;;;;;;4.28;3.10;;;;;;;;;;4112974;28;20037;-46
2021/07/09 00:43:14;;;;;;;5.75;3.25;;;27.90;37.30;;;;;;4110111;28;20479;-45
2021/07/09 00:45:16;;;;;;;5.13;3.30;;;;;;;;;;4111090;28;20085;-45
2021/07/09 00:47:18;;;;;;;4.60;3.58;;;;;;;;;;4110601;28;20027;-46
2021/07/09 00:49:21;;;;;;;4.60;3.40;;;29.10;36.10;;;;;;4102680;28;20030;-50
2021/07/09 00:51:23;;;;;;;4.47;2.95;;;29.80;35.30;;;;;;4111058;28;20038;-47
2021/07/09 00:53:25;;;;;;;3.85;2.75;;;30.00;35.00;;;;;;4107327;28;20073;-47
2021/07/09 00:55:27;;;;;;;5.17;3.00;;;30.20;34.60;;;;;;4111270;28;20506;-47
2021/07/09 00:57:30;;;;;;;4.90;3.23;;;30.40;34.50;;;;;;4107763;28;20034;-46
2021/07/09 00:59:32;;;;;;;3.75;2.60;;;30.40;34.30;;;;;;4111132;28;20121;-46
2021/07/09 01:01:34;;;;;;;3.80;2.80;;;30.20;34.40;;;;;;4107044;28;20038;-49
2021/07/09 01:03:36;;;;;;;3.95;3.03;;;29.90;34.50;;;;;;4112192;28;20093;-49
2021/07/09 01:05:38;;;;;;;3.77;2.87;;;29.70;34.70;;;;;;4111738;28;20048;-47
2021/07/09 01:07:40;;;;;;;3.42;2.53;;;29.50;35.00;;;;;;4113497;28;20479;-47
2021/07/09 01:09:42;;;;;;;3.60;2.83;;;29.30;35.20;;;;;;4110433;28;20041;-49
2021/07/09 01:11:48;;;;;;;3.45;2.70;;;29.20;35.30;;;;;;4107887;28;20080;-46
2021/07/09 01:13:51;;;;;;;3.58;2.83;;;29.10;35.40;;;;;;4109974;28;20048;-46
2021/07/09 01:15:53;;;;;;;3.72;2.75;;;29.10;35.30;;;;;;4113132;28;20392;-50
2021/07/09 01:17:55;;;;;;;3.88;2.83;;;29.00;35.50;;;;;;4112732;28;20164;-47
2021/07/09 01:19:58;;;;;;;3.00;2.40;;;28.90;35.50;;;;;;4109437;28;20029;-48
2021/07/09 01:22:00;;;;;;;3.50;2.55;;;28.90;35.80;;;;;;4113252;28;20034;-50
2021/07/09 01:24:04;;;;;;;3.92;2.60;;;28.90;35.70;;;;;;4114579;28;20100;-47
2021/07/09 01:26:08;;;;;;;3.92;2.80;;;28.90;35.80;;;;;;4109811;28;20460;-50
2021/07/09 01:28:11;;;;;;;3.20;2.58;;;28.90;35.90;;;;;;4112817;28;20108;-51
2021/07/09 01:30:22;;;;;;;3.55;2.90;;;28.90;35.80;;;;;;4114821;28;20349;-45
2021/07/09 01:32:24;;;;;;;3.60;2.78;;;28.90;35.80;;;;;;4107740;28;20609;-47
2021/07/09 01:34:27;;;;;;;3.47;2.83;;;28.90;36.00;;;;;;4116745;28;20030;-52
2021/07/09 01:36:29;;;;;;;3.45;2.50;;;28.90;35.80;;;;;;4106494;28;20731;-48
2021/07/09 01:38:31;;;;;;;3.60;3.00;;;28.90;35.90;;;;;;4107547;28;20038;-49
2021/07/09 01:40:35;;;;;;;3.50;2.67;;;29.00;36.00;;;;;;4125852;28;20106;-45
2021/07/09 01:42:38;;;;;;;3.55;2.70;;;29.00;36.10;;;;;;4124389;28;20038;-46
2021/07/09 01:47:37;;;;;;;4.43;3.28;;;29.10;36.10;;;;;;4105208;28;20619;-51
2021/07/09 01:49:57;;;;;;;4.37;3.50;;;29.10;35.90;;;;;;4127966;28;20026;-51
2021/07/09 01:52:00;;;;;;;4.10;3.05;;;29.20;36.00;;;;;;4111872;28;20191;-48
2021/07/09 01:54:02;;;;;;;5.00;4.10;;;29.20;35.70;;;;;;4113378;28;20022;-52
2021/07/09 01:56:04;;;;;;;5.23;3.60;;;29.20;35.70;;;;;;4114196;28;20018;-45
2021/07/09 01:58:06;;;;;;;4.35;3.65;;;29.20;35.60;;;;;;4112726;28;20170;-46
2021/07/09 02:00:12;;;;;;;5.57;3.80;;;29.30;35.50;;;;;;4114379;28;20399;-45
2021/07/09 02:02:14;;;;;;;4.28;3.55;;;29.30;35.40;;;;;;4110282;28;20038;-50
2021/07/09 02:04:16;;;;;;;4.60;3.70;;;29.30;35.20;;;;;;4111838;28;20388;-51
2021/07/09 02:06:18;;;;;;;4.73;3.80;;;29.40;35.20;;;;;;4114483;28;20319;-49
2021/07/09 02:08:20;;;;;;;6.00;4.20;;;29.40;35.10;;;;;;4113182;28;20030;-49
2021/07/09 02:10:26;;;;;;;5.13;3.97;;;29.40;34.90;;;;;;4110197;28;20038;-50
2021/07/09 02:12:29;;;;;;;4.63;3.65;;;29.50;35.00;;;;;;4105125;28;20674;-51
2021/07/09 02:14:31;;;;;;;4.45;3.50;;;29.60;34.90;;;;;;4109347;28;20037;-53
2021/07/09 02:16:33;;;;;;;4.60;3.43;;;29.60;34.80;;;;;;4109746;28;20038;-49
2021/07/09 02:18:35;;;;;;;5.13;4.15;;;29.60;34.70;;;;;;4108853;28;20069;-55
2021/07/09 02:20:38;;;;;;;5.40;4.10;;;29.70;34.70;;;;;;4110841;28;20038;-47
2021/07/09 02:22:41;;;;;;;5.13;3.72;;;29.70;35.30;;;;;;4113164;28;20387;-51
2021/07/09 02:24:45;;;;;;;4.53;3.45;;;29.60;35.80;;;;;;4116279;28;20030;-52
2021/07/09 02:26:47;;;;;;;6.60;3.53;;;29.40;36.40;;;;;;4117032;28;20475;-48
2021/07/09 02:28:49;;;;;;;5.90;3.70;;;29.20;36.90;;;;;;4114261;28;20048;-50
2021/07/09 02:30:51;;;;;;;5.33;4.07;;;29.00;37.40;;;;;;4112473;28;20405;-46
2021/07/09 02:32:53;;;;;;;4.70;3.80;;;28.80;38.20;;;;;;4111375;28;20618;-53
2021/07/09 02:34:55;;;;;;;5.47;4.20;;;28.60;37.30;;;;;;4110975;28;20350;-49
2021/07/09 02:36:58;;;;;;;6.03;4.25;;;;;;;;;;4117568;28;20042;-49
2021/07/09 02:39:00;;;;;;;5.30;4.35;;;;;;;;;;4114359;28;20045;-47
2021/07/09 02:41:02;;;;;;;5.10;3.97;;;;;;;;;;4110669;28;20113;-47
2021/07/09 02:43:05;;;;;;;4.80;3.80;;;;;;;;;;4111058;28;20435;-49
2021/07/09 02:45:06;;;;;;;;;;;;;;;;;;4111690;28;20516;-47
2021/07/09 02:47:08;;;;;;;4.97;3.80;;;;;;;;;;4111174;28;20396;-51
2021/07/09 02:49:10;;;;;;;7.93;4.10;;;;;;;;;;4113925;28;20026;-47
2021/07/09 02:51:12;;;;;;;5.85;4.20;;;;;;;;;;4115409;28;20419;-47
2021/07/09 02:53:15;;;;;;;5.25;4.10;;;28.40;37.30;;;;;;4113479;28;20045;-46
2021/07/09 02:55:18;;;;;;;5.32;4.53;;;27.90;37.60;;;;;;4116802;28;20026;-50
2021/07/09 02:57:20;;;;;;;5.82;4.53;;;27.70;37.20;;;;;;4115562;28;20032;-50
2021/07/09 02:59:23;;;;;;;5.63;4.03;;;27.70;37.20;;;;;;4113299;28;20468;-49
2021/07/09 03:01:26;;;;;;;7.25;4.28;;;27.80;37.20;;;;;;4110853;28;20026;-48
2021/07/09 03:03:27;;;;;;;;;;;27.90;37.20;;;;;;4116372;28;20038;-49
2021/07/09 03:05:29;;;;;;;7.35;4.40;;;28.00;37.50;;;;;;4112452;28;19952;-49
2021/07/09 03:07:32;;;;;;;6.60;4.45;;;27.90;38.10;;;;;;4115254;28;20031;-53
2021/07/09 03:09:34;;;;;;;6.70;4.55;;;27.80;38.10;;;;;;4108495;28;20039;-51
2021/07/09 03:11:37;;;;;;;7.65;5.03;;;27.60;38.40;;;;;;4113166;28;20099;-51
2021/07/09 03:13:40;;;;;;;6.40;4.80;;;27.50;38.50;;;;;;4114576;28;20037;-52
2021/07/09 03:15:42;;;;;;;7.10;5.03;;;27.40;37.50;;;;;;4112878;28;20030;-50
2021/07/09 03:17:44;;;;;;;7.00;4.90;;;27.30;38.10;;;;;;4115077;28;20053;-51
2021/07/09 03:19:46;;;;;;;7.85;5.15;;;27.40;38.20;;;;;;4116875;28;20035;-45
2021/07/09 03:21:49;;;;;;;9.15;4.80;;;27.50;39.00;;;;;;4114442;28;20051;-45
2021/07/09 03:23:51;;;;;;;7.60;4.90;;;27.50;38.70;;;;;;4113993;28;20157;-51
2021/07/09 03:25:53;;;;;;;7.97;4.77;;;27.40;39.20;;;;;;4117452;28;20551;-46
2021/07/09 03:27:55;;;;;;;8.40;5.55;;;27.30;39.30;;;;;;4115377;28;20280;-45
2021/07/09 03:29:59;;;;;;;6.60;5.10;;;27.30;39.30;;;;;;4114440;28;20518;-49
2021/07/09 03:32:01;;;;;;;7.57;5.00;;;27.10;39.40;;;;;;4111105;28;20268;-46
2021/07/09 03:34:04;;;;;;;5.55;4.50;;;27.10;39.10;;;;;;4113361;28;20030;-49
2021/07/09 03:36:06;;;;;;;6.47;5.00;;;27.10;38.80;;;;;;4112456;28;20038;-53
2021/07/09 03:38:08;;;;;;;5.90;4.43;;;27.20;38.70;;;;;;4113474;28;20049;-50
2021/07/09 03:40:12;;;;;;;6.38;4.70;;;27.30;38.80;;;;;;4110276;28;20261;-47
2021/07/09 03:42:14;;;;;;;7.38;4.72;;;27.30;39.20;;;;;;4111071;28;20034;-53
2021/07/09 03:44:16;;;;;;;6.07;4.18;;;27.20;39.20;;;;;;4113621;28;20038;-50
2021/07/09 03:46:18;;;;;;;5.25;4.05;;;27.10;39.40;;;;;;4110941;28;20168;-51
2021/07/09 03:48:20;;;;;;;6.53;4.10;;;27.00;39.80;;;;;;4116010;28;20388;-50
2021/07/09 03:50:22;;;;;;;5.97;4.47;;;26.90;39.30;;;;;;4111409;28;20046;-52
2021/07/09 03:52:24;;;;;;;6.15;4.15;;;26.80;39.20;;;;;;4111588;28;20034;-48
2021/07/09 03:54:27;;;;;;;6.13;4.55;;;26.90;39.10;;;;;;4110937;28;20067;-54
2021/07/09 03:56:29;;;;;;;5.57;3.73;;;27.00;39.00;;;;;;4112738;28;20026;-51
2021/07/09 03:58:32;;;;;;;5.38;3.85;;;27.10;39.20;;;;;;4114476;28;20070;-50
2021/07/09 04:00:35;;;;;;;6.57;4.43;;;27.00;39.30;;;;;;4119799;28;20121;-49
2021/07/09 04:02:37;;;;;;;4.72;3.80;;;;;;;;;;4108119;28;20406;-46
2021/07/09 04:04:40;;;;;;;5.03;3.97;;;26.90;39.30;;;;;;4111487;28;20396;-46
2021/07/09 04:06:43;;;;;;;5.25;4.00;;;26.70;39.40;;;;;;4113285;28;20424;-49
2021/07/09 04:08:45;;;;;;;;;;;26.60;39.70;;;;;;4111969;28;20026;-53
2021/07/09 04:10:47;;;;;;;4.80;3.58;;;26.60;39.70;;;;;;4114869;28;19952;-48
2021/07/09 04:12:49;;;;;;;4.68;3.63;;;26.70;39.50;;;;;;4113068;28;20072;-51
2021/07/09 04:14:51;;;;;;;5.60;3.53;;;26.80;39.50;;;;;;4111326;28;20030;-52
2021/07/09 04:16:53;;;;;;;5.88;3.80;;;26.80;39.80;;;;;;4113238;28;20044;-51
2021/07/09 04:18:55;;;;;;;5.93;4.03;;;26.80;40.00;;;;;;4114961;28;20053;-50
2021/07/09 04:20:57;;;;;;;5.28;3.83;;;26.70;40.10;;;;;;4111454;28;20102;-50
2021/07/09 04:22:59;;;;;;;4.68;3.65;;;26.60;40.10;;;;;;4114718;28;20101;-51
2021/07/09 04:25:01;;;;;;;4.28;3.33;;;26.50;40.20;;;;;;4113372;28;20065;-52
2021/07/09 04:27:04;;;;;;;4.35;3.17;;;26.50;40.10;;;;;;4107229;28;20046;-49
2021/07/09 04:29:06;;;;;;;4.85;3.55;;;26.60;40.00;;;;;;4111832;28;20030;-51
2021/07/09 04:31:08;;;;;;;4.97;3.55;;;26.70;40.20;;;;;;4108543;28;20046;-49
2021/07/09 04:33:10;;;;;;;4.40;3.67;;;26.70;40.50;;;;;;4110610;28;20027;-50
2021/07/09 04:35:13;;;;;;;4.20;3.53;;;26.70;40.70;;;;;;4102156;28;20177;-47
2021/07/09 04:37:15;;;;;;;4.28;3.35;;;26.60;41.00;;;;;;4104484;28;20531;-49
2021/07/09 04:39:17;;;;;;;5.95;3.72;;;26.50;41.20;;;;;;4105698;28;20042;-49
2021/07/09 04:41:19;;;;;;;4.80;3.40;;;26.40;41.00;;;;;;4107949;28;20026;-47
2021/07/09 04:43:21;;;;;;;4.93;3.38;;;26.40;40.60;;;;;;4102417;28;20043;-51
2021/07/09 04:45:23;;;;;;;4.53;3.38;;;26.50;40.40;;;;;;4108561;28;20404;-49
2021/07/09 04:47:25;;;;;;;4.45;3.42;;;26.60;40.30;;;;;;4104674;28;20042;-49
2021/07/09 04:49:28;;;;;;;3.77;2.90;;;26.70;40.70;;;;;;4103054;28;20121;-52
2021/07/09 04:51:30;;;;;;;4.67;3.00;;;26.60;41.10;;;;;;4107108;28;20816;-49
2021/07/09 04:53:32;;;;;;;4.22;3.08;;;26.50;41.20;;;;;;4104650;28;20027;-46
2021/07/09 04:55:34;;;;;;;4.03;3.03;;;26.50;41.20;;;;;;4107584;28;20100;-47
2021/07/09 04:57:36;;;;;;;5.47;2.85;;;26.40;41.10;;;;;;4106831;28;20070;-50
2021/07/09 04:59:38;;;;;;;4.43;2.60;;;26.30;41.20;;;;;;4102680;28;20080;-49
2021/07/09 05:01:41;;;;;;;3.67;2.60;;;26.40;41.10;;;;;;4102982;28;20566;-49
2021/07/09 05:03:43;;;;;;;4.03;2.67;;;26.50;40.90;;;;;;4106202;28;20027;-46
2021/07/09 05:05:45;;;;;;;4.15;2.60;;;26.60;41.10;;;;;;4106927;28;20257;-48
2021/07/09 05:07:47;;;;;;;3.20;2.42;;;26.60;41.30;;;;;;4110103;28;20405;-44
2021/07/09 05:09:49;;;;;;;3.78;2.80;;;26.60;41.40;;;;;;4107636;28;20476;-49
2021/07/09 05:11:51;;;;;;;4.15;2.58;;;26.50;41.30;;;;;;4098606;28;20532;-44
2021/07/09 05:13:54;;;;;;;4.07;2.50;;;26.40;41.50;;;;;;4103410;28;20033;-45
2021/07/09 05:15:56;;;;;;;3.53;2.45;;;26.30;41.60;;;;;;4104211;28;20338;-46
2021/07/09 05:17:58;;;;;;;3.25;2.47;;;26.30;41.60;;;;;;4108165;28;20779;-49
2021/07/09 05:20:00;;;;;;;2.92;2.20;;;26.30;41.50;;;;;;4102851;28;20023;-47
2021/07/09 05:22:02;;;;;;;3.10;2.35;;;26.50;41.40;;;;;;4109812;28;20085;-47
2021/07/09 05:24:06;;;;;;;3.08;2.30;;;26.60;41.60;;;;;;4110260;28;20412;-44
2021/07/09 05:26:08;;;;;;;3.25;2.33;;;26.50;41.40;;;;;;4105027;28;20109;-45
2021/07/09 05:28:11;;;;;;;3.58;2.75;;;26.50;42.00;;;;;;4109158;28;20328;-45
2021/07/09 05:30:14;;;;;;;4.35;2.50;;;26.40;41.70;;;;;;4107783;28;20022;-45
2021/07/09 05:32:20;;;;;;;;;;;26.30;41.90;;;;;;4104462;28;20618;-50
2021/07/09 05:34:22;;;;;;;3.55;2.40;;;26.20;42.30;;;;;;4104980;28;20297;-44
2021/07/09 05:36:24;;;;;;;4.40;2.53;;;26.10;42.50;;;;;;4105094;28;20030;-47
2021/07/09 05:38:26;;;;;;;3.38;2.53;;;26.10;42.50;;;;;;4106975;28;20308;-43
2021/07/09 05:40:28;;;;;;;2.78;2.10;;;26.20;42.30;;;;;;4110241;28;20049;-43
2021/07/09 05:42:31;;;;;;;3.67;2.55;;;26.40;42.20;;;;;;4108080;28;20310;-47
2021/07/09 05:44:33;;;;;;;3.95;2.40;;;26.40;42.20;;;;;;4100867;28;20113;-45
2021/07/09 05:46:35;;;;;;;3.78;2.20;;;26.30;42.80;;;;;;4102090;28;20454;-48
2021/07/09 05:48:37;;;;;;;3.05;2.30;;;26.30;42.70;;;;;;4103779;28;20089;-49
2021/07/09 05:50:41;;;;;;;3.37;2.40;;;26.20;42.80;;;;;;4098186;28;20045;-44
2021/07/09 05:52:43;;;;;;;3.53;2.50;;;26.10;42.80;;;;;;4107228;28;20348;-48
2021/07/09 05:54:45;;;;;;;4.05;2.60;;;26.00;43.10;;;;;;4106434;28;20034;-45
2021/07/09 05:56:48;;;;;;;3.50;2.35;;;25.90;43.10;;;;;;4109110;28;20082;-47
2021/07/09 05:58:50;;;;;;;3.65;2.63;;;26.00;43.10;;;;;;4105311;28;20293;-47
2021/07/09 06:00:52;;;;;;;3.20;2.40;;;26.10;43.00;;;;;;4103391;28;20666;-52
2021/07/09 06:02:54;;;;;;;3.23;2.27;;;26.30;43.80;;;;;;4103418;28;20066;-50
2021/07/09 06:04:56;;;;;;;2.95;2.38;;;26.30;43.30;;;;;;4100529;28;20392;-46
2021/07/09 06:06:58;;;;;;;2.92;2.15;;;26.20;43.50;;;;;;4106433;28;20055;-49
2021/07/09 06:09:01;;;;;;;3.00;2.10;;;26.10;43.30;;;;;;4105383;28;20344;-47
2021/07/09 06:11:03;;;;;;;2.80;2.22;;;26.00;43.50;;;;;;4109009;28;20307;-46
2021/07/09 06:13:06;;;;;;;3.10;2.38;;;25.90;43.60;;;;;;4099342;28;20081;-52
2021/07/09 06:15:09;;;;;;;3.42;2.45;;;25.80;43.60;;;;;;4105465;28;20061;-46
2021/07/09 06:17:11;;;;;;;3.53;2.30;;;25.70;43.60;;;;;;4109151;28;20719;-46
2021/07/09 06:19:14;;;;;;;2.88;2.00;;;25.90;43.70;;;;;;4109311;28;20149;-52
2021/07/09 06:21:16;;;;;;;3.45;2.35;;;26.00;43.60;;;;;;4112609;28;20286;-49
2021/07/09 06:23:18;;;;;;;2.83;2.23;;;26.10;43.40;;;;;;4111642;28;20508;-53
2021/07/09 06:25:27;;;;;;;3.40;2.17;;;26.20;44.20;;;;;;4122580;28;20109;-51
2021/07/09 06:27:30;;;;;;;3.13;2.17;;;26.10;43.80;;;;;;4120746;28;20288;-51
2021/07/09 06:29:32;;;;;;;2.95;2.05;;;26.00;43.70;;;;;;4118351;28;20022;-47
2021/07/09 06:31:34;;;;;;;3.30;2.50;;;25.90;43.80;;;;;;4113709;28;20118;-50
2021/07/09 06:33:37;;;;;;;3.00;2.28;;;25.80;44.00;;;;;;4108269;28;20322;-46
2021/07/09 06:35:40;;;;;;;3.40;2.38;;;25.80;44.10;;;;;;4113055;28;20035;-50
2021/07/09 06:37:42;;;;;;;4.07;2.25;;;25.70;44.20;;;;;;4106959;28;20031;-50
2021/07/09 06:39:44;;;;;;;2.72;2.10;;;25.70;44.00;;;;;;4111908;28;20084;-48
2021/07/09 06:41:46;;;;;;;2.92;2.30;;;25.80;44.00;;;;;;4106231;28;20038;-54
2021/07/09 06:43:49;;;;;;;3.42;2.55;;;25.90;43.60;;;;;;4110636;28;20030;-48
2021/07/09 06:45:51;;;;;;;5.38;2.70;;;25.80;43.50;;;;;;4108835;28;20022;-43
2021/07/09 06:47:53;;;;;;;3.75;2.40;;;25.70;43.70;;;;;;4109726;28;20034;-46
2021/07/09 06:49:55;;;;;;;5.72;2.67;;;25.60;43.80;;;;;;4111533;28;20089;-46
2021/07/09 06:51:57;;;;;;;3.97;2.50;;;25.50;44.00;;;;;;4112120;28;20054;-47
2021/07/09 06:53:59;;;;;;;3.17;2.25;;;25.40;44.10;;;;;;4107393;28;20049;-50
2021/07/09 06:56:01;;;;;;;4.13;2.40;;;25.30;44.20;;;;;;4105241;28;20026;-44
2021/07/09 06:58:04;;;;;;;3.72;2.20;;;25.20;44.30;;;;;;4104035;28;20034;-47
2021/07/09 07:00:07;;;;;;;3.45;2.50;;;25.10;44.30;;;;;;4107305;28;20037;-47
2021/07/09 07:02:11;;;;;;;2.92;2.22;;;25.10;44.30;;;;;;4106806;28;20137;-48
2021/07/09 07:04:14;;;;;;;3.50;2.22;;;25.00;44.50;;;;;;4111696;28;20429;-44
2021/07/09 07:06:16;;;;;;;3.20;2.20;;;25.10;44.80;;;;;;4109998;28;20046;-46
2021/07/09 07:08:21;;;;;;;2.20;1.88;;;25.10;44.70;;;;;;4111569;28;20097;-47
2021/07/09 07:10:23;;;;;;;4.13;2.45;;;25.10;44.90;;;;;;4110369;28;20080;-45
2021/07/09 07:12:28;;;;;;;2.90;2.00;;;25.10;45.00;;;;;;4106852;28;20030;-49
2021/07/09 07:14:30;;;;;;;3.97;2.60;;;25.00;45.00;;;;;;4109252;28;20102;-48
2021/07/09 07:16:32;;;;;;;3.42;2.00;;;25.00;46.00;;;;;;4110298;28;20368;-45
2021/07/09 07:18:35;;;;;;;5.18;2.30;;;24.90;45.40;;;;;;4110303;28;20552;-42
2021/07/09 07:20:39;;;;;;;3.83;2.03;;;24.80;45.70;;;;;;4110443;28;20037;-45
2021/07/09 07:22:42;;;;;;;4.03;2.20;;;24.80;45.80;;;;;;4102892;28;20044;-51
2021/07/09 07:24:48;;;;;;;2.83;1.88;;;24.70;46.00;;;;;;4109280;28;20047;-46
2021/07/09 07:26:50;;;;;;;2.88;2.10;;;24.60;46.00;;;;;;4103018;28;20343;-44
2021/07/09 07:28:52;;;;;;;4.30;2.08;;;24.60;46.30;;;;;;4108775;28;20050;-47
2021/07/09 07:30:54;;;;;;;2.63;2.10;;;24.60;46.30;;;;;;4105197;28;20743;-46
2021/07/09 07:32:56;;;;;;;3.35;2.10;;;24.50;46.30;;;;;;4105404;28;20031;-52
2021/07/09 07:34:58;;;;;;;2.22;2.00;;;24.50;46.50;;;;;;4109415;28;20063;-48
2021/07/09 07:37:00;;;;;;;3.40;2.25;;;24.40;47.20;;;;;;4106300;28;20065;-45
2021/07/09 07:39:03;;;;;;;3.67;2.17;;;24.40;46.50;;;;;;4109407;28;20031;-49
2021/07/09 07:41:05;;;;;;;3.13;2.00;;;24.30;46.50;;;;;;4103518;28;20085;-51
2021/07/09 07:43:07;;;;;;;2.55;1.83;;;24.30;47.30;;;;;;4107296;28;20108;-48
2021/07/09 07:45:10;;;;;;;4.47;2.10;;;24.20;46.60;;;;;;4107457;28;20106;-46
2021/07/09 07:47:12;;;;;;;3.42;2.05;;;24.20;46.80;;;;;;4110169;28;20030;-48
2021/07/09 07:49:15;;;;;;;2.20;1.90;;;24.10;46.80;;;;;;4107294;28;20027;-46
2021/07/09 07:51:17;;;;;;;2.28;1.92;;;24.10;47.00;;;;;;4108551;28;20346;-48
2021/07/09 07:53:19;;;;;;;2.85;1.83;;;24.00;47.10;;;;;;4102794;28;20038;-47
2021/07/09 07:55:22;;;;;;;2.92;2.00;;;24.00;47.10;;;;;;4108665;28;20034;-45
2021/07/09 07:57:24;;;;;;;2.50;1.77;;;24.00;47.10;;;;;;4107632;28;20040;-49
2021/07/09 07:59:26;;;;;;;2.53;2.03;;;23.90;47.20;;;;;;4105311;28;20042;-51
2021/07/09 08:01:30;;;;;;;4.10;2.00;;;23.90;47.20;;;;;;4109292;28;20429;-48
2021/07/09 08:03:32;;;;;;;2.45;1.88;;;23.80;47.30;;;;;;4107673;28;20133;-44
2021/07/09 08:05:34;;;;;;;5.10;2.10;;;23.80;47.30;;;;;;4109303;28;20046;-46
2021/07/09 08:07:36;;;;;;;2.35;1.80;;;23.70;47.30;;;;;;4106773;28;20045;-45
2021/07/09 08:09:38;;;;;;;2.67;1.85;;;23.70;47.40;;;;;;4107766;28;20069;-44
2021/07/09 08:11:40;;;;;;;2.40;1.90;;;23.60;47.50;;;;;;4104154;28;20133;-45
2021/07/09 08:13:43;;;;;;;3.20;1.88;;;23.60;47.50;;;;;;4104279;28;20145;-49
2021/07/09 08:15:45;;;;;;;2.60;1.73;;;23.60;47.70;;;;;;4106008;28;20625;-48
2021/07/09 08:17:47;;;;;;;4.60;1.77;;;23.50;47.60;;;;;;4107799;28;20031;-44
2021/07/09 08:19:49;;;;;;;2.40;1.80;;;23.50;47.70;;;;;;4105769;28;20053;-46
2021/07/09 08:21:51;;;;;;;3.13;1.80;;;23.40;48.30;;;;;;4105192;28;20113;-44
2021/07/09 08:23:54;;;;;;;3.33;1.85;;;23.40;47.80;;;;;;4106558;28;20576;-46
2021/07/09 08:25:57;;;;;;;3.55;1.85;;;23.30;47.80;;;;;;4103156;28;20030;-46
2021/07/09 08:27:59;;;;;;;2.83;1.95;;;23.30;47.90;;;;;;4109426;28;20041;-49
2021/07/09 08:30:02;;;;;;;2.00;1.60;;;23.30;48.00;;;;;;4107645;28;20030;-45
2021/07/09 08:32:04;;;;;;;2.67;1.80;;;23.20;47.90;;;;;;4102943;28;20030;-44
2021/07/09 08:34:06;;;;;;;2.17;1.65;;;23.20;48.10;;;;;;4104654;28;20197;-47
2021/07/09 08:36:09;;;;;;;2.97;1.58;;;23.20;48.00;;;;;;4109573;28;20034;-47
2021/07/09 08:38:11;;;;;;;2.90;1.83;;;23.10;48.20;;;;;;4106378;28;20038;-44
2021/07/09 08:40:14;;;;;;;1.90;1.52;;;23.10;48.20;;;;;;4103992;28;20030;-44
2021/07/09 08:42:16;;;;;;;3.00;2.00;;;23.00;48.30;;;;;;4101853;28;20564;-46
2021/07/09 08:44:18;;;;;;;2.33;1.65;;;23.00;48.30;;;;;;4103769;28;20519;-46
2021/07/09 08:46:21;;;;;;;2.60;1.90;;;23.00;48.40;;;;;;4109438;28;20026;-47
2021/07/09 08:48:25;;;;;;;4.97;1.75;;;22.90;48.50;;;;;;4107417;28;20039;-51
2021/07/09 08:50:28;;;;;;;3.42;1.83;;;22.90;48.50;;;;;;4096213;28;20133;-46
2021/07/09 08:52:32;;;;;;;3.20;2.10;;;22.80;48.70;;;;;;4102630;28;20104;-45
2021/07/09 08:54:35;;;;;;;2.78;1.90;;;22.80;48.70;;;;;;4109044;28;20039;-41
2021/07/09 08:56:37;;;;;;;2.17;1.90;;;22.80;48.70;;;;;;4106656;28;20030;-44
2021/07/09 08:58:40;;;;;;;2.85;1.90;;;22.80;48.80;;;;;;4101436;28;20023;-44
2021/07/09 09:00:45;;;;;;;2.70;1.80;;;22.70;48.70;;;;;;4106064;28;20069;-45
2021/07/09 09:02:48;;;;;;;2.88;1.88;;;22.70;48.90;;;;;;4107805;28;20073;-47
2021/07/09 09:04:53;;;;;;;2.50;1.75;;;22.60;49.00;;;;;;4108486;28;20038;-43
2021/07/09 09:07:04;;;;;;;1.98;1.60;;;22.60;49.00;;;;;;4102538;28;20320;-46
2021/07/09 09:09:18;;;;;;;3.70;1.83;;;22.60;49.10;;;;;;4111488;28;20027;-43
2021/07/09 09:11:20;;;;;;;3.42;1.90;;;22.50;49.10;;;;;;4101532;28;20050;-44
2021/07/09 09:13:28;;;;;;;6.15;2.25;;;22.50;49.40;;;;;;4106444;28;20106;-45
2021/07/09 09:15:30;;;;;;;2.72;1.80;;;22.40;49.40;;;;;;4103603;28;20066;-44
2021/07/09 09:17:37;;;;;;;3.72;2.00;;;22.40;49.40;;;;;;4103573;28;20092;-48
2021/07/09 09:19:39;;;;;;;2.08;1.83;;;22.40;50.10;;;;;;4107392;28;20135;-44
2021/07/09 09:21:41;;;;;;;2.85;2.00;;;22.40;49.40;;;;;;4104012;28;20053;-43
2021/07/09 09:23:52;;;;;;;2.75;1.70;;;22.30;49.30;;;;;;4105104;28;20487;-48
2021/07/09 09:25:54;;;;;;;2.50;1.92;;;22.30;49.50;;;;;;4101621;28;21170;-45
2021/07/09 09:28:12;;;;;;;2.80;1.73;;;22.30;49.60;;;;;;4107113;28;20571;-46
2021/07/09 09:30:16;;;;;;;2.88;1.73;;;22.30;49.60;;;;;;4111271;28;20496;-43
2021/07/09 09:32:18;;;;;;;3.03;2.10;;;22.20;49.50;;;;;;4106147;28;20038;-42
2021/07/09 09:34:45;;;;;;;3.97;2.40;;;22.20;49.90;;;;;;4107145;28;20399;-44
2021/07/09 09:37:00;;;;;;;3.10;1.88;;;22.20;49.80;;;;;;4114557;28;20023;-44
2021/07/09 09:39:03;;;;;;;3.47;1.80;;;22.20;49.90;;;;;;4100822;28;20160;-46
2021/07/09 09:41:05;;;;;;;4.25;2.00;;;22.10;49.60;;;;;;4106410;28;20121;-46
2021/07/09 09:43:14;;;;;;;2.05;1.70;;;22.10;49.90;;;;;;4102296;28;20448;-43
2021/07/09 09:45:26;;;;;;;2.33;1.80;;;22.10;49.90;;;;;;4107313;28;20061;-43
2021/07/09 09:47:32;;;;;;;2.55;1.90;;;22.10;49.80;;;;;;4105579;28;20525;-43
2021/07/09 09:49:35;;;;;;;3.17;1.83;;;22.00;49.80;;;;;;4110269;28;20560;-41
2021/07/09 09:51:37;;;;;;;2.40;2.00;;;22.00;50.00;;;;;;4105224;28;20563;-42
2021/07/09 09:53:39;;;;;;;3.08;1.90;;;;;;;;;;4107952;28;20303;-41
2021/07/09 09:55:41;;;;;;;3.17;2.08;;;;;;;;;;4106952;28;20463;-44
2021/07/09 09:57:44;;;;;;;3.00;1.88;;;;;;;;;;4106377;28;20031;-41
2021/07/09 09:59:50;;;;;;;2.88;1.83;;;;;;;;;;4109098;28;20613;-41
2021/07/09 10:01:54;;;;;;;3.13;1.80;;;;;;;;;;4107169;28;20066;-43
2021/07/09 10:03:56;;;;;;;3.88;2.10;;;;;;;;;;4106167;28;20035;-43
2021/07/09 10:06:02;;;;;;;2.95;1.95;;;;;;;;;;4101382;28;20368;-41
2021/07/09 10:08:05;;;;;;;2.63;1.90;;;;;;;;;;4106495;28;20496;-41
2021/07/09 10:10:09;;;;;;;2.57;2.00;;;21.90;49.80;;;;;;4100391;28;20758;-41
2021/07/09 10:12:13;;;;;;;2.75;1.98;;;21.70;50.30;;;;;;4108203;28;20272;-41
2021/07/09 10:14:18;;;;;;;2.10;1.73;;;21.70;50.50;;;;;;4104935;28;20100;-46
2021/07/09 10:16:21;;;;;;;2.42;1.92;;;21.60;50.50;;;;;;4107072;28;20481;-42
2021/07/09 10:18:24;;;;;;;3.23;1.90;;;21.60;50.40;;;;;;4104112;28;20536;-49
2021/07/09 10:20:26;;;;;;;2.80;2.22;;;21.60;50.60;;;;;;4109905;28;20149;-41
2021/07/09 10:22:29;;;;;;;3.22;1.73;;;21.60;50.30;;;;;;4101535;28;20531;-43
2021/07/09 10:24:32;;;;;;;3.50;2.50;;;21.50;50.10;;;;;;4105915;28;20066;-42
2021/07/09 10:26:35;;;;;;;4.00;2.25;;;;;;;;;;4101762;28;20165;-42
2021/07/09 10:28:38;;;;;;;2.67;2.10;;;;;;;;;;4107372;28;20571;-44
2021/07/09 10:30:42;;;;;;;3.17;2.28;;;;;;;;;;4107169;28;20046;-41
2021/07/09 10:32:48;;;;;;;3.15;2.25;;;;;;;;;;4105619;28;20027;-45
2021/07/09 10:34:50;;;;;;;2.58;2.05;;;;;;;;;;4106394;28;20035;-45
2021/07/09 10:36:53;;;;;;;3.72;2.40;;;;;;;;;;4105058;28;20034;-47
2021/07/09 10:38:56;;;;;;;2.53;2.10;;;;;;;;;;4102669;28;20148;-45
2021/07/09 10:41:10;;;;;;;3.10;2.08;;;;;;;;;;4105297;28;20031;-49
2021/07/09 10:46:13;;;;;;;4.68;2.25;;;21.00;50.90;;;;;;4082757;28;20041;-51
2021/07/09 10:48:19;;;;;;;5.50;2.50;;;21.00;51.70;;;;;;4098806;28;20476;-44
2021/07/09 10:50:53;;;;;;;7.88;2.30;;;20.90;51.30;;;;;;4098950;28;20038;-49
2021/07/09 10:53:03;;;;;;;9.73;2.65;;;20.90;51.50;;;;;;4093143;28;20105;-51
2021/07/09 10:56:00;;;;;;;8.15;2.45;;;20.90;52.40;;;;;;4087103;28;20035;-50
2021/07/09 10:58:17;;;;;;;7.95;2.67;;;20.90;52.20;;;;;;4068974;28;20576;-45